Quathiaski Cove, Canada
Current Conditions -  °F | °C
As of 6:00 AM on Thursday 23 Oct 2014 (Local Time) from CYBL Reporting Station
Light Rain Light Rain  
Wind Chill: 46°   Ceiling: 7000
Heat Index: 46°   Visibility: 5mi
Dew Point: 46°   Wind: 2mph
Humidity: 100%   Direction: 300°WNW
Pressure: 29.64"   Gusts: NA
Location:  50.05°N, 125.18°W
Report Text: CYBL 231300Z 30002KT 5SM -RA BR SCT006 BKN070 08/08 A2964 RMK ST3AC4 SLP038
Loading
Personal Weather Stations






























Interactive Weather Map
Tropical Storm Tracking
New forecast layout! Learn more

10-Day Weather Forecast

Advertisements
Track Severe Weather on mobile